Terminal Aerodrome Forecast
Issued by NWS

Home | Current Version | Previous Version | Text Only | Print | Product List | Glossary On
Versions: 1 2 3 4 5 6 7 8 9 10 11 12 13 14 15 16 17 18 19 20 21 22 23 24 25 26 27 28 29 30 31 32
000
FTUS43 KDMX 190154 AAA
TAFMCW
TAF AMD
KMCW 190154Z 1902/1924 09007KT P6SM -SHRA SCT035 OVC080
      TEMPO 1902/1905 5SM -SHRA BKN040
     FM191400 18010KT 4SM BR SCT015 OVC020
     FM191800 31013G22KT P6SM SCT015 OVC040=

USA.gov is the U.S. government's official web portal to all federal, state and local government web resources and services.